sensor_id;sensor_type;location;lat;lon;timestamp;P1;durP1;ratioP1;P2;durP2;ratioP2
79204;SDS011;68632;47.512;19.104;2024-03-22T00:00:55;19.58;;;11.15;;
79204;SDS011;68632;47.512;19.104;2024-03-22T00:01:57;24.63;;;12.50;;
79204;SDS011;68632;47.512;19.104;2024-03-22T00:02:58;19.15;;;10.95;;
79204;SDS011;68632;47.512;19.104;2024-03-22T00:03:59;19.40;;;11.45;;
79204;SDS011;68632;47.512;19.104;2024-03-22T00:05:00;27.00;;;12.80;;
79204;SDS011;68632;47.512;19.104;2024-03-22T00:06:01;22.70;;;13.25;;
79204;SDS011;68632;47.512;19.104;2024-03-22T00:07:02;19.77;;;11.18;;
79204;SDS011;68632;47.512;19.104;2024-03-22T00:08:04;22.42;;;12.05;;
79204;SDS011;68632;47.512;19.104;2024-03-22T00:09:05;22.70;;;12.60;;
79204;SDS011;68632;47.512;19.104;2024-03-22T00:10:07;23.85;;;12.90;;
79204;SDS011;68632;47.512;19.104;2024-03-22T00:11:08;21.10;;;11.95;;
79204;SDS011;68632;47.512;19.104;2024-03-22T00:12:09;24.38;;;12.90;;
79204;SDS011;68632;47.512;19.104;2024-03-22T00:13:11;21.88;;;12.75;;
79204;SDS011;68632;47.512;19.104;2024-03-22T00:14:12;23.00;;;13.02;;
79204;SDS011;68632;47.512;19.104;2024-03-22T00:15:13;21.90;;;12.60;;
79204;SDS011;68632;47.512;19.104;2024-03-22T00:16:14;26.05;;;12.18;;
79204;SDS011;68632;47.512;19.104;2024-03-22T00:17:15;26.88;;;13.05;;
79204;SDS011;68632;47.512;19.104;2024-03-22T00:18:16;22.60;;;11.77;;
79204;SDS011;68632;47.512;19.104;2024-03-22T00:19:18;23.45;;;12.85;;
79204;SDS011;68632;47.512;19.104;2024-03-22T00:20:19;27.17;;;13.88;;
79204;SDS011;68632;47.512;19.104;2024-03-22T00:21:21;21.95;;;13.05;;
79204;SDS011;68632;47.512;19.104;2024-03-22T00:22:22;24.45;;;12.38;;
79204;SDS011;68632;47.512;19.104;2024-03-22T00:23:24;21.13;;;11.25;;
79204;SDS011;68632;47.512;19.104;2024-03-22T00:24:25;22.10;;;13.00;;
79204;SDS011;68632;47.512;19.104;2024-03-22T00:25:26;23.83;;;12.15;;
79204;SDS011;68632;47.512;19.104;2024-03-22T00:26:27;25.98;;;12.27;;
79204;SDS011;68632;47.512;19.104;2024-03-22T00:27:29;22.52;;;12.85;;
79204;SDS011;68632;47.512;19.104;2024-03-22T00:28:30;24.52;;;12.35;;
79204;SDS011;68632;47.512;19.104;2024-03-22T00:29:31;22.42;;;12.75;;
79204;SDS011;68632;47.512;19.104;2024-03-22T00:30:32;25.98;;;13.57;;
79204;SDS011;68632;47.512;19.104;2024-03-22T00:31:33;24.35;;;12.13;;
79204;SDS011;68632;47.512;19.104;2024-03-22T00:32:34;23.80;;;12.48;;
79204;SDS011;68632;47.512;19.104;2024-03-22T00:33:36;23.70;;;13.55;;
79204;SDS011;68632;47.512;19.104;2024-03-22T00:34:37;28.20;;;14.05;;
79204;SDS011;68632;47.512;19.104;2024-03-22T00:35:38;25.67;;;13.48;;
79204;SDS011;68632;47.512;19.104;2024-03-22T00:36:39;25.35;;;12.43;;
79204;SDS011;68632;47.512;19.104;2024-03-22T00:37:40;20.65;;;12.68;;
79204;SDS011;68632;47.512;19.104;2024-03-22T00:38:42;25.10;;;12.85;;
79204;SDS011;68632;47.512;19.104;2024-03-22T00:39:43;22.83;;;13.13;;
79204;SDS011;68632;47.512;19.104;2024-03-22T00:40:45;23.48;;;12.35;;
79204;SDS011;68632;47.512;19.104;2024-03-22T00:41:46;22.48;;;13.15;;
79204;SDS011;68632;47.512;19.104;2024-03-22T00:42:47;24.45;;;14.20;;
79204;SDS011;68632;47.512;19.104;2024-03-22T00:43:48;22.50;;;12.77;;
79204;SDS011;68632;47.512;19.104;2024-03-22T00:44:49;22.38;;;12.57;;
79204;SDS011;68632;47.512;19.104;2024-03-22T00:45:51;23.88;;;12.73;;
79204;SDS011;68632;47.512;19.104;2024-03-22T00:46:52;22.35;;;12.95;;
79204;SDS011;68632;47.512;19.104;2024-03-22T00:47:53;23.83;;;13.07;;
79204;SDS011;68632;47.512;19.104;2024-03-22T00:48:54;25.55;;;12.82;;
79204;SDS011;68632;47.512;19.104;2024-03-22T00:49:55;23.75;;;13.07;;
79204;SDS011;68632;47.512;19.104;2024-03-22T00:50:56;24.92;;;12.88;;
79204;SDS011;68632;47.512;19.104;2024-03-22T00:51:58;21.42;;;11.73;;
79204;SDS011;68632;47.512;19.104;2024-03-22T00:52:59;24.88;;;13.23;;
79204;SDS011;68632;47.512;19.104;2024-03-22T00:54:00;23.80;;;13.77;;
79204;SDS011;68632;47.512;19.104;2024-03-22T00:55:01;20.45;;;11.63;;
79204;SDS011;68632;47.512;19.104;2024-03-22T00:56:03;25.27;;;13.15;;
79204;SDS011;68632;47.512;19.104;2024-03-22T00:57:04;23.02;;;12.38;;
79204;SDS011;68632;47.512;19.104;2024-03-22T00:58:05;24.42;;;12.60;;
79204;SDS011;68632;47.512;19.104;2024-03-22T00:59:07;24.92;;;12.80;;
79204;SDS011;68632;47.512;19.104;2024-03-22T01:00:08;25.05;;;13.35;;
79204;SDS011;68632;47.512;19.104;2024-03-22T01:01:10;24.77;;;13.00;;
79204;SDS011;68632;47.512;19.104;2024-03-22T01:02:11;21.38;;;12.27;;
79204;SDS011;68632;47.512;19.104;2024-03-22T01:03:13;22.90;;;13.02;;
79204;SDS011;68632;47.512;19.104;2024-03-22T01:04:14;25.13;;;13.55;;
79204;SDS011;68632;47.512;19.104;2024-03-22T01:05:15;22.40;;;12.93;;
79204;SDS011;68632;47.512;19.104;2024-03-22T01:06:17;23.60;;;12.57;;
79204;SDS011;68632;47.512;19.104;2024-03-22T01:07:24;29.50;;;13.38;;
79204;SDS011;68632;47.512;19.104;2024-03-22T01:08:25;23.52;;;12.45;;
79204;SDS011;68632;47.512;19.104;2024-03-22T01:09:27;22.75;;;12.27;;
79204;SDS011;68632;47.512;19.104;2024-03-22T01:10:28;24.95;;;13.63;;
79204;SDS011;68632;47.512;19.104;2024-03-22T01:11:29;25.50;;;12.63;;
79204;SDS011;68632;47.512;19.104;2024-03-22T01:12:30;23.10;;;12.98;;
79204;SDS011;68632;47.512;19.104;2024-03-22T01:13:31;23.27;;;13.20;;
79204;SDS011;68632;47.512;19.104;2024-03-22T01:14:33;26.88;;;12.77;;
79204;SDS011;68632;47.512;19.104;2024-03-22T01:15:34;22.58;;;12.93;;
79204;SDS011;68632;47.512;19.104;2024-03-22T01:16:35;21.60;;;12.45;;
79204;SDS011;68632;47.512;19.104;2024-03-22T01:17:36;25.52;;;14.40;;
79204;SDS011;68632;47.512;19.104;2024-03-22T01:18:38;24.90;;;12.60;;
79204;SDS011;68632;47.512;19.104;2024-03-22T01:19:39;24.55;;;12.35;;
79204;SDS011;68632;47.512;19.104;2024-03-22T01:20:40;22.55;;;13.15;;
79204;SDS011;68632;47.512;19.104;2024-03-22T01:21:43;22.38;;;13.20;;
79204;SDS011;68632;47.512;19.104;2024-03-22T01:22:44;22.88;;;12.90;;
79204;SDS011;68632;47.512;19.104;2024-03-22T01:23:45;21.10;;;11.73;;
79204;SDS011;68632;47.512;19.104;2024-03-22T01:24:46;23.65;;;13.02;;
79204;SDS011;68632;47.512;19.104;2024-03-22T01:25:48;24.77;;;12.55;;
79204;SDS011;68632;47.512;19.104;2024-03-22T01:26:49;21.23;;;12.80;;
79204;SDS011;68632;47.512;19.104;2024-03-22T01:27:50;23.40;;;12.85;;
79204;SDS011;68632;47.512;19.104;2024-03-22T01:28:51;24.58;;;12.60;;
79204;SDS011;68632;47.512;19.104;2024-03-22T01:29:53;24.45;;;12.90;;
79204;SDS011;68632;47.512;19.104;2024-03-22T01:30:54;23.15;;;13.93;;
79204;SDS011;68632;47.512;19.104;2024-03-22T01:31:55;27.35;;;12.52;;
79204;SDS011;68632;47.512;19.104;2024-03-22T01:32:56;23.20;;;12.68;;
79204;SDS011;68632;47.512;19.104;2024-03-22T01:33:57;25.15;;;12.75;;
79204;SDS011;68632;47.512;19.104;2024-03-22T01:34:59;22.85;;;12.38;;
79204;SDS011;68632;47.512;19.104;2024-03-22T01:36:00;21.27;;;12.65;;
79204;SDS011;68632;47.512;19.104;2024-03-22T01:37:01;21.70;;;12.80;;
79204;SDS011;68632;47.512;19.104;2024-03-22T01:38:03;21.92;;;12.00;;
79204;SDS011;68632;47.512;19.104;2024-03-22T01:39:04;24.35;;;12.40;;
79204;SDS011;68632;47.512;19.104;2024-03-22T01:40:06;21.38;;;13.50;;
79204;SDS011;68632;47.512;19.104;2024-03-22T01:41:08;22.25;;;13.27;;
79204;SDS011;68632;47.512;19.104;2024-03-22T01:42:09;25.13;;;13.70;;
79204;SDS011;68632;47.512;19.104;2024-03-22T01:43:11;24.98;;;12.68;;
79204;SDS011;68632;47.512;19.104;2024-03-22T01:44:12;26.80;;;13.65;;
79204;SDS011;68632;47.512;19.104;2024-03-22T01:45:14;22.58;;;12.48;;
79204;SDS011;68632;47.512;19.104;2024-03-22T01:46:16;22.98;;;13.00;;
79204;SDS011;68632;47.512;19.104;2024-03-22T01:47:17;22.92;;;12.95;;
79204;SDS011;68632;47.512;19.104;2024-03-22T01:48:18;25.77;;;11.68;;
79204;SDS011;68632;47.512;19.104;2024-03-22T01:49:20;20.95;;;12.15;;
79204;SDS011;68632;47.512;19.104;2024-03-22T01:50:21;24.40;;;13.50;;
79204;SDS011;68632;47.512;19.104;2024-03-22T01:51:23;22.73;;;12.90;;
79204;SDS011;68632;47.512;19.104;2024-03-22T01:52:24;23.83;;;12.30;;
79204;SDS011;68632;47.512;19.104;2024-03-22T01:53:25;21.60;;;12.82;;
79204;SDS011;68632;47.512;19.104;2024-03-22T01:54:26;22.13;;;12.55;;
79204;SDS011;68632;47.512;19.104;2024-03-22T01:55:28;27.27;;;13.85;;
79204;SDS011;68632;47.512;19.104;2024-03-22T01:56:30;21.65;;;11.70;;
79204;SDS011;68632;47.512;19.104;2024-03-22T01:57:31;22.63;;;11.15;;
79204;SDS011;68632;47.512;19.104;2024-03-22T01:58:33;22.88;;;13.55;;
79204;SDS011;68632;47.512;19.104;2024-03-22T01:59:34;22.30;;;11.88;;
79204;SDS011;68632;47.512;19.104;2024-03-22T02:00:35;26.92;;;12.30;;
79204;SDS011;68632;47.512;19.104;2024-03-22T02:01:37;27.13;;;12.55;;
79204;SDS011;68632;47.512;19.104;2024-03-22T02:02:38;24.70;;;13.07;;
79204;SDS011;68632;47.512;19.104;2024-03-22T02:03:39;21.58;;;11.65;;
79204;SDS011;68632;47.512;19.104;2024-03-22T02:04:40;21.85;;;12.35;;
79204;SDS011;68632;47.512;19.104;2024-03-22T02:05:42;24.33;;;12.07;;
79204;SDS011;68632;47.512;19.104;2024-03-22T02:06:43;22.13;;;12.38;;
79204;SDS011;68632;47.512;19.104;2024-03-22T02:07:45;25.27;;;13.20;;
79204;SDS011;68632;47.512;19.104;2024-03-22T02:08:46;19.60;;;11.68;;
79204;SDS011;68632;47.512;19.104;2024-03-22T02:09:47;19.45;;;11.90;;
79204;SDS011;68632;47.512;19.104;2024-03-22T02:10:49;20.35;;;11.90;;
79204;SDS011;68632;47.512;19.104;2024-03-22T02:11:50;25.08;;;12.93;;
79204;SDS011;68632;47.512;19.104;2024-03-22T02:12:52;20.90;;;12.32;;
79204;SDS011;68632;47.512;19.104;2024-03-22T02:13:53;23.05;;;12.68;;
79204;SDS011;68632;47.512;19.104;2024-03-22T02:14:57;22.27;;;11.57;;
79204;SDS011;68632;47.512;19.104;2024-03-22T02:16:59;22.70;;;11.05;;
79204;SDS011;68632;47.512;19.104;2024-03-22T02:18:01;22.92;;;11.80;;
79204;SDS011;68632;47.512;19.104;2024-03-22T02:19:02;23.30;;;12.68;;
79204;SDS011;68632;47.512;19.104;2024-03-22T02:20:03;24.70;;;11.50;;
79204;SDS011;68632;47.512;19.104;2024-03-22T02:21:05;23.00;;;12.43;;
79204;SDS011;68632;47.512;19.104;2024-03-22T02:22:07;25.73;;;12.48;;
79204;SDS011;68632;47.512;19.104;2024-03-22T02:23:08;20.92;;;11.65;;
79204;SDS011;68632;47.512;19.104;2024-03-22T02:24:09;19.55;;;11.20;;
79204;SDS011;68632;47.512;19.104;2024-03-22T02:25:10;23.77;;;12.73;;
79204;SDS011;68632;47.512;19.104;2024-03-22T02:26:11;24.67;;;12.13;;
79204;SDS011;68632;47.512;19.104;2024-03-22T02:27:12;22.20;;;12.68;;
79204;SDS011;68632;47.512;19.104;2024-03-22T02:28:14;28.45;;;12.88;;
79204;SDS011;68632;47.512;19.104;2024-03-22T02:29:15;21.70;;;12.75;;
79204;SDS011;68632;47.512;19.104;2024-03-22T02:30:16;21.13;;;13.10;;
79204;SDS011;68632;47.512;19.104;2024-03-22T02:31:18;23.17;;;12.27;;
79204;SDS011;68632;47.512;19.104;2024-03-22T02:32:20;25.95;;;13.50;;
79204;SDS011;68632;47.512;19.104;2024-03-22T02:33:22;25.40;;;11.93;;
79204;SDS011;68632;47.512;19.104;2024-03-22T02:34:23;23.80;;;12.52;;
79204;SDS011;68632;47.512;19.104;2024-03-22T02:35:24;22.85;;;12.27;;
79204;SDS011;68632;47.512;19.104;2024-03-22T02:36:26;24.48;;;13.25;;
79204;SDS011;68632;47.512;19.104;2024-03-22T02:37:27;23.23;;;13.27;;
79204;SDS011;68632;47.512;19.104;2024-03-22T02:38:29;25.73;;;13.02;;
79204;SDS011;68632;47.512;19.104;2024-03-22T02:39:30;24.88;;;12.85;;
79204;SDS011;68632;47.512;19.104;2024-03-22T02:40:31;24.33;;;12.82;;
79204;SDS011;68632;47.512;19.104;2024-03-22T02:41:32;22.58;;;13.27;;
79204;SDS011;68632;47.512;19.104;2024-03-22T02:42:33;22.65;;;11.65;;
79204;SDS011;68632;47.512;19.104;2024-03-22T02:43:34;24.30;;;13.00;;
79204;SDS011;68632;47.512;19.104;2024-03-22T02:44:36;22.30;;;13.23;;
79204;SDS011;68632;47.512;19.104;2024-03-22T02:45:43;27.10;;;14.07;;
79204;SDS011;68632;47.512;19.104;2024-03-22T02:46:44;24.90;;;13.65;;
79204;SDS011;68632;47.512;19.104;2024-03-22T02:47:45;29.88;;;13.73;;
79204;SDS011;68632;47.512;19.104;2024-03-22T02:48:46;23.17;;;14.25;;
79204;SDS011;68632;47.512;19.104;2024-03-22T02:49:48;22.88;;;11.80;;
79204;SDS011;68632;47.512;19.104;2024-03-22T02:50:49;25.90;;;13.82;;
79204;SDS011;68632;47.512;19.104;2024-03-22T02:51:50;27.75;;;13.65;;
79204;SDS011;68632;47.512;19.104;2024-03-22T02:52:51;26.13;;;12.77;;
79204;SDS011;68632;47.512;19.104;2024-03-22T02:53:52;21.30;;;12.38;;
79204;SDS011;68632;47.512;19.104;2024-03-22T02:54:54;26.30;;;12.98;;
79204;SDS011;68632;47.512;19.104;2024-03-22T02:55:55;25.52;;;13.15;;
79204;SDS011;68632;47.512;19.104;2024-03-22T02:56:56;28.75;;;14.23;;
79204;SDS011;68632;47.512;19.104;2024-03-22T02:57:57;25.75;;;13.50;;
79204;SDS011;68632;47.512;19.104;2024-03-22T02:58:59;23.13;;;13.15;;
79204;SDS011;68632;47.512;19.104;2024-03-22T03:00:00;26.35;;;14.07;;
79204;SDS011;68632;47.512;19.104;2024-03-22T03:01:01;22.80;;;12.18;;
79204;SDS011;68632;47.512;19.104;2024-03-22T03:02:04;28.25;;;15.05;;
79204;SDS011;68632;47.512;19.104;2024-03-22T03:03:06;26.83;;;13.88;;
79204;SDS011;68632;47.512;19.104;2024-03-22T03:04:07;29.10;;;15.70;;
79204;SDS011;68632;47.512;19.104;2024-03-22T03:05:08;23.55;;;13.90;;
79204;SDS011;68632;47.512;19.104;2024-03-22T03:06:10;26.85;;;14.23;;
79204;SDS011;68632;47.512;19.104;2024-03-22T03:07:14;28.30;;;13.73;;
79204;SDS011;68632;47.512;19.104;2024-03-22T03:08:15;26.35;;;13.48;;
79204;SDS011;68632;47.512;19.104;2024-03-22T03:09:16;29.55;;;14.23;;
79204;SDS011;68632;47.512;19.104;2024-03-22T03:10:17;26.05;;;14.57;;
79204;SDS011;68632;47.512;19.104;2024-03-22T03:11:18;26.15;;;13.32;;
79204;SDS011;68632;47.512;19.104;2024-03-22T03:12:20;25.88;;;13.82;;
79204;SDS011;68632;47.512;19.104;2024-03-22T03:13:21;26.92;;;14.27;;
79204;SDS011;68632;47.512;19.104;2024-03-22T03:14:22;21.77;;;13.80;;
79204;SDS011;68632;47.512;19.104;2024-03-22T03:15:23;24.35;;;13.43;;
79204;SDS011;68632;47.512;19.104;2024-03-22T03:16:24;25.02;;;13.25;;
79204;SDS011;68632;47.512;19.104;2024-03-22T03:17:26;25.77;;;14.18;;
79204;SDS011;68632;47.512;19.104;2024-03-22T03:18:27;29.05;;;15.20;;
79204;SDS011;68632;47.512;19.104;2024-03-22T03:19:28;49.42;;;27.73;;
79204;SDS011;68632;47.512;19.104;2024-03-22T03:20:29;29.40;;;15.98;;
79204;SDS011;68632;47.512;19.104;2024-03-22T03:21:30;27.63;;;13.80;;
79204;SDS011;68632;47.512;19.104;2024-03-22T03:22:32;26.63;;;14.68;;
79204;SDS011;68632;47.512;19.104;2024-03-22T03:23:33;25.45;;;13.90;;
79204;SDS011;68632;47.512;19.104;2024-03-22T03:24:34;23.83;;;13.73;;
79204;SDS011;68632;47.512;19.104;2024-03-22T03:25:35;26.52;;;14.35;;
79204;SDS011;68632;47.512;19.104;2024-03-22T03:26:36;25.23;;;14.02;;
79204;SDS011;68632;47.512;19.104;2024-03-22T03:27:38;23.80;;;13.52;;
79204;SDS011;68632;47.512;19.104;2024-03-22T03:28:39;28.70;;;14.93;;
79204;SDS011;68632;47.512;19.104;2024-03-22T03:29:40;24.25;;;13.63;;
79204;SDS011;68632;47.512;19.104;2024-03-22T03:30:41;28.45;;;14.13;;
79204;SDS011;68632;47.512;19.104;2024-03-22T03:31:43;27.58;;;13.93;;
79204;SDS011;68632;47.512;19.104;2024-03-22T03:32:44;29.63;;;13.98;;
79204;SDS011;68632;47.512;19.104;2024-03-22T03:33:45;30.48;;;14.10;;
79204;SDS011;68632;47.512;19.104;2024-03-22T03:34:46;23.60;;;13.57;;
79204;SDS011;68632;47.512;19.104;2024-03-22T03:35:47;26.90;;;14.57;;
79204;SDS011;68632;47.512;19.104;2024-03-22T03:36:49;25.08;;;13.98;;
79204;SDS011;68632;47.512;19.104;2024-03-22T03:37:50;26.33;;;14.20;;
79204;SDS011;68632;47.512;19.104;2024-03-22T03:38:51;27.55;;;16.13;;
79204;SDS011;68632;47.512;19.104;2024-03-22T03:39:52;24.02;;;14.65;;
79204;SDS011;68632;47.512;19.104;2024-03-22T03:40:53;23.52;;;14.45;;
79204;SDS011;68632;47.512;19.104;2024-03-22T03:41:55;29.58;;;15.10;;
79204;SDS011;68632;47.512;19.104;2024-03-22T03:42:56;26.23;;;13.23;;
79204;SDS011;68632;47.512;19.104;2024-03-22T03:43:57;29.48;;;15.35;;
79204;SDS011;68632;47.512;19.104;2024-03-22T03:44:58;28.88;;;15.27;;
79204;SDS011;68632;47.512;19.104;2024-03-22T03:46:00;29.63;;;15.98;;
79204;SDS011;68632;47.512;19.104;2024-03-22T03:47:01;25.02;;;14.98;;
79204;SDS011;68632;47.512;19.104;2024-03-22T03:48:03;29.80;;;15.18;;
79204;SDS011;68632;47.512;19.104;2024-03-22T03:49:04;25.77;;;14.35;;
79204;SDS011;68632;47.512;19.104;2024-03-22T03:50:06;27.05;;;14.88;;
79204;SDS011;68632;47.512;19.104;2024-03-22T03:51:07;30.23;;;16.38;;
79204;SDS011;68632;47.512;19.104;2024-03-22T03:52:08;28.65;;;16.00;;
79204;SDS011;68632;47.512;19.104;2024-03-22T03:53:09;25.23;;;14.25;;
79204;SDS011;68632;47.512;19.104;2024-03-22T03:54:11;28.55;;;14.82;;
79204;SDS011;68632;47.512;19.104;2024-03-22T03:55:12;23.95;;;15.02;;
79204;SDS011;68632;47.512;19.104;2024-03-22T03:56:14;25.05;;;16.67;;
79204;SDS011;68632;47.512;19.104;2024-03-22T03:57:15;28.27;;;15.73;;
79204;SDS011;68632;47.512;19.104;2024-03-22T03:58:16;27.25;;;15.18;;
79204;SDS011;68632;47.512;19.104;2024-03-22T03:59:18;26.98;;;15.25;;
79204;SDS011;68632;47.512;19.104;2024-03-22T04:00:20;23.27;;;14.00;;
79204;SDS011;68632;47.512;19.104;2024-03-22T04:01:21;24.55;;;15.55;;
79204;SDS011;68632;47.512;19.104;2024-03-22T04:02:23;24.95;;;15.45;;
79204;SDS011;68632;47.512;19.104;2024-03-22T04:03:24;27.65;;;16.70;;
79204;SDS011;68632;47.512;19.104;2024-03-22T04:04:26;28.13;;;16.25;;
79204;SDS011;68632;47.512;19.104;2024-03-22T04:05:27;27.20;;;15.82;;
79204;SDS011;68632;47.512;19.104;2024-03-22T04:06:28;24.23;;;15.13;;
79204;SDS011;68632;47.512;19.104;2024-03-22T04:07:29;26.23;;;15.60;;
79204;SDS011;68632;47.512;19.104;2024-03-22T04:08:31;28.88;;;16.15;;
79204;SDS011;68632;47.512;19.104;2024-03-22T04:09:33;30.20;;;14.68;;
79204;SDS011;68632;47.512;19.104;2024-03-22T04:10:34;27.85;;;14.82;;
79204;SDS011;68632;47.512;19.104;2024-03-22T04:11:36;26.35;;;14.82;;
79204;SDS011;68632;47.512;19.104;2024-03-22T04:12:38;27.15;;;15.75;;
79204;SDS011;68632;47.512;19.104;2024-03-22T04:13:39;24.27;;;15.68;;
79204;SDS011;68632;47.512;19.104;2024-03-22T04:14:40;25.85;;;15.75;;
79204;SDS011;68632;47.512;19.104;2024-03-22T04:15:41;26.10;;;15.05;;
79204;SDS011;68632;47.512;19.104;2024-03-22T04:16:43;28.25;;;16.70;;
79204;SDS011;68632;47.512;19.104;2024-03-22T04:17:44;26.17;;;15.68;;
79204;SDS011;68632;47.512;19.104;2024-03-22T04:18:45;26.70;;;15.63;;
79204;SDS011;68632;47.512;19.104;2024-03-22T04:19:46;28.25;;;16.38;;
79204;SDS011;68632;47.512;19.104;2024-03-22T04:20:53;27.30;;;15.77;;
79204;SDS011;68632;47.512;19.104;2024-03-22T04:21:58;28.35;;;15.70;;
79204;SDS011;68632;47.512;19.104;2024-03-22T04:22:59;25.80;;;16.95;;
79204;SDS011;68632;47.512;19.104;2024-03-22T04:24:00;22.60;;;14.48;;
79204;SDS011;68632;47.512;19.104;2024-03-22T04:25:02;27.25;;;16.17;;
79204;SDS011;68632;47.512;19.104;2024-03-22T04:26:04;24.85;;;15.43;;
79204;SDS011;68632;47.512;19.104;2024-03-22T04:27:05;25.73;;;16.20;;
79204;SDS011;68632;47.512;19.104;2024-03-22T04:28:08;28.38;;;15.68;;
79204;SDS011;68632;47.512;19.104;2024-03-22T04:29:09;26.25;;;16.13;;
79204;SDS011;68632;47.512;19.104;2024-03-22T04:30:11;27.65;;;14.98;;
79204;SDS011;68632;47.512;19.104;2024-03-22T04:31:12;25.75;;;15.45;;
79204;SDS011;68632;47.512;19.104;2024-03-22T04:32:13;28.48;;;15.77;;
79204;SDS011;68632;47.512;19.104;2024-03-22T04:33:14;28.40;;;17.63;;
79204;SDS011;68632;47.512;19.104;2024-03-22T04:34:16;25.50;;;15.38;;
79204;SDS011;68632;47.512;19.104;2024-03-22T04:35:17;25.02;;;15.10;;
79204;SDS011;68632;47.512;19.104;2024-03-22T04:36:18;24.05;;;14.98;;
79204;SDS011;68632;47.512;19.104;2024-03-22T04:37:19;23.27;;;14.63;;
79204;SDS011;68632;47.512;19.104;2024-03-22T04:38:21;23.90;;;14.73;;
79204;SDS011;68632;47.512;19.104;2024-03-22T04:39:22;28.30;;;16.40;;
79204;SDS011;68632;47.512;19.104;2024-03-22T04:40:25;25.15;;;15.90;;
79204;SDS011;68632;47.512;19.104;2024-03-22T04:41:27;27.35;;;15.90;;
79204;SDS011;68632;47.512;19.104;2024-03-22T04:42:28;26.35;;;15.73;;
79204;SDS011;68632;47.512;19.104;2024-03-22T04:43:30;24.90;;;15.13;;
79204;SDS011;68632;47.512;19.104;2024-03-22T04:44:31;20.85;;;14.15;;
79204;SDS011;68632;47.512;19.104;2024-03-22T04:45:32;22.92;;;13.38;;
79204;SDS011;68632;47.512;19.104;2024-03-22T04:46:33;26.25;;;15.40;;
79204;SDS011;68632;47.512;19.104;2024-03-22T04:47:35;25.20;;;14.10;;
79204;SDS011;68632;47.512;19.104;2024-03-22T04:48:38;23.63;;;14.70;;
79204;SDS011;68632;47.512;19.104;2024-03-22T04:49:39;26.25;;;15.00;;
79204;SDS011;68632;47.512;19.104;2024-03-22T04:50:40;29.38;;;15.77;;
79204;SDS011;68632;47.512;19.104;2024-03-22T04:51:41;24.35;;;15.07;;
79204;SDS011;68632;47.512;19.104;2024-03-22T04:52:43;23.63;;;14.75;;
79204;SDS011;68632;47.512;19.104;2024-03-22T04:53:44;24.58;;;14.90;;
79204;SDS011;68632;47.512;19.104;2024-03-22T04:54:45;24.50;;;15.00;;
79204;SDS011;68632;47.512;19.104;2024-03-22T04:55:48;25.20;;;14.85;;
79204;SDS011;68632;47.512;19.104;2024-03-22T04:56:50;26.23;;;16.05;;
79204;SDS011;68632;47.512;19.104;2024-03-22T04:57:52;23.73;;;14.70;;
79204;SDS011;68632;47.512;19.104;2024-03-22T04:58:53;27.40;;;15.25;;
79204;SDS011;68632;47.512;19.104;2024-03-22T04:59:56;26.15;;;14.82;;
79204;SDS011;68632;47.512;19.104;2024-03-22T05:00:57;26.48;;;15.93;;
79204;SDS011;68632;47.512;19.104;2024-03-22T05:01:59;24.60;;;15.13;;
79204;SDS011;68632;47.512;19.104;2024-03-22T05:03:00;26.27;;;14.93;;
79204;SDS011;68632;47.512;19.104;2024-03-22T05:04:01;26.15;;;14.88;;
79204;SDS011;68632;47.512;19.104;2024-03-22T05:05:02;23.60;;;14.15;;
79204;SDS011;68632;47.512;19.104;2024-03-22T05:06:04;25.88;;;15.45;;
79204;SDS011;68632;47.512;19.104;2024-03-22T05:07:07;25.98;;;16.00;;
79204;SDS011;68632;47.512;19.104;2024-03-22T05:08:08;24.35;;;15.23;;
79204;SDS011;68632;47.512;19.104;2024-03-22T05:09:10;25.00;;;15.18;;
79204;SDS011;68632;47.512;19.104;2024-03-22T05:10:12;26.23;;;15.55;;
79204;SDS011;68632;47.512;19.104;2024-03-22T05:11:13;25.00;;;15.52;;
79204;SDS011;68632;47.512;19.104;2024-03-22T05:12:14;24.40;;;15.55;;
79204;SDS011;68632;47.512;19.104;2024-03-22T05:13:15;22.13;;;14.32;;
79204;SDS011;68632;47.512;19.104;2024-03-22T05:14:18;24.75;;;15.10;;
79204;SDS011;68632;47.512;19.104;2024-03-22T05:15:20;27.95;;;14.48;;
79204;SDS011;68632;47.512;19.104;2024-03-22T05:16:21;21.80;;;13.85;;
79204;SDS011;68632;47.512;19.104;2024-03-22T05:17:23;24.95;;;15.52;;
79204;SDS011;68632;47.512;19.104;2024-03-22T05:18:25;21.67;;;14.32;;
79204;SDS011;68632;47.512;19.104;2024-03-22T05:19:26;29.83;;;16.63;;
79204;SDS011;68632;47.512;19.104;2024-03-22T05:20:27;25.48;;;16.08;;
79204;SDS011;68632;47.512;19.104;2024-03-22T05:21:28;23.83;;;15.90;;
79204;SDS011;68632;47.512;19.104;2024-03-22T05:22:29;25.85;;;15.13;;
79204;SDS011;68632;47.512;19.104;2024-03-22T05:23:30;24.85;;;14.40;;
79204;SDS011;68632;47.512;19.104;2024-03-22T05:24:32;25.15;;;16.02;;
79204;SDS011;68632;47.512;19.104;2024-03-22T05:25:33;25.38;;;14.98;;
79204;SDS011;68632;47.512;19.104;2024-03-22T05:26:34;25.58;;;14.88;;
79204;SDS011;68632;47.512;19.104;2024-03-22T05:27:37;24.48;;;16.13;;
79204;SDS011;68632;47.512;19.104;2024-03-22T05:28:38;23.20;;;14.85;;
79204;SDS011;68632;47.512;19.104;2024-03-22T05:29:39;23.30;;;14.77;;
79204;SDS011;68632;47.512;19.104;2024-03-22T05:30:40;24.60;;;14.40;;
79204;SDS011;68632;47.512;19.104;2024-03-22T05:31:45;24.30;;;15.00;;
79204;SDS011;68632;47.512;19.104;2024-03-22T05:32:48;20.67;;;12.45;;
79204;SDS011;68632;47.512;19.104;2024-03-22T05:33:50;24.02;;;13.65;;
79204;SDS011;68632;47.512;19.104;2024-03-22T05:34:52;27.45;;;14.90;;
79204;SDS011;68632;47.512;19.104;2024-03-22T05:35:54;25.15;;;15.65;;
79204;SDS011;68632;47.512;19.104;2024-03-22T05:36:55;23.15;;;14.95;;
79204;SDS011;68632;47.512;19.104;2024-03-22T05:37:56;25.20;;;15.18;;
79204;SDS011;68632;47.512;19.104;2024-03-22T05:38:57;26.25;;;15.48;;
79204;SDS011;68632;47.512;19.104;2024-03-22T05:39:58;23.52;;;16.48;;
79204;SDS011;68632;47.512;19.104;2024-03-22T05:41:03;24.90;;;15.40;;
79204;SDS011;68632;47.512;19.104;2024-03-22T05:42:05;22.20;;;14.07;;
79204;SDS011;68632;47.512;19.104;2024-03-22T05:43:06;21.63;;;14.55;;
79204;SDS011;68632;47.512;19.104;2024-03-22T05:44:07;24.67;;;15.35;;
79204;SDS011;68632;47.512;19.104;2024-03-22T05:45:09;25.38;;;15.10;;
79204;SDS011;68632;47.512;19.104;2024-03-22T05:46:10;22.75;;;15.77;;
79204;SDS011;68632;47.512;19.104;2024-03-22T05:47:11;24.98;;;15.25;;
79204;SDS011;68632;47.512;19.104;2024-03-22T05:48:12;23.77;;;14.57;;
79204;SDS011;68632;47.512;19.104;2024-03-22T05:49:13;21.90;;;14.70;;
79204;SDS011;68632;47.512;19.104;2024-03-22T05:50:15;24.23;;;15.15;;
79204;SDS011;68632;47.512;19.104;2024-03-22T05:51:16;24.17;;;14.82;;
79204;SDS011;68632;47.512;19.104;2024-03-22T05:52:17;23.73;;;14.52;;
79204;SDS011;68632;47.512;19.104;2024-03-22T05:53:19;25.90;;;15.48;;
79204;SDS011;68632;47.512;19.104;2024-03-22T05:54:20;25.45;;;15.35;;
79204;SDS011;68632;47.512;19.104;2024-03-22T05:55:21;20.77;;;15.40;;